UASP

Pavlodar

Pavlodar, Kazakhstan
TAF UASP 212000Z 2121/2206 27009MPS 5000 -SHSN BKN006 OVC011CB TEMPO 2121/2123 27004MPS 1000 BR BKN003 TEMPO 2123/2204 VRB01MPS 0400 FZFG OVC002
Issued Valid From Valid To
Jan-21 @ 20:00 UTC
(4 hours ago)
Jan-21 @ 21:00 UTC
(3 hours ago)
Jan-22 @ 06:00 UTC
(in 6 hours)
Jan-21 @ 21:00 to Jan-22 @ 06:00
TAF UASP 212000Z 2121/2206 27009MPS 5000 -SHSN BKN006 OVC011CB
Wind Visibility Clouds Conditions
270° at 17 knots 5,005 meters
  • Broken at 600' AGL
  • Overcast at 1,100' AGL
  • Light Snow
Expired Click to View Jan-21 @ 21:00 to Jan-21 @ 23:00
TEMPO 2121/2123 27004MPS 1000 BR BKN003
Wind Visibility Clouds Conditions
270° at 8 knots 998 meters
  • Broken at 300' AGL
  • Mist
Temporary Jan-21 @ 23:00 to Jan-22 @ 04:00
TEMPO 2123/2204 VRB01MPS 0400 FZFG OVC002
Wind Visibility Clouds Conditions
Variable at 2 knots 402 meters
  • Overcast at 200' AGL
  • Freezing
  • Fog
TAF UASP 212000Z 2121/2206 27009MPS 5000 -SHSN BKN006 OVC011CB TEMPO 2121/2123 27004MPS 1000 BR BKN003 TEMPO 2123/2204 VRB01MPS 0400 FZFG OVC002
Issued Jan-21 @ 20:00 UTC
(4 hours ago)
Valid From Jan-21 @ 21:00 UTC
(3 hours ago)
Valid To Jan-22 @ 06:00 UTC
(in 6 hours)
Jan-21 @ 21:00 - Jan-22 @ 06:00
Wind Visibility
270° at 17 knots 5,005 meters
Clouds
  • Broken at 600' AGL
  • Overcast at 1,100' AGL
Conditions
  • Light Snow
Jan-21 @ 21:00 - Jan-21 @ 23:00
Wind Visibility
270° at 8 knots 998 meters
Clouds
  • Broken at 300' AGL
Conditions
  • Mist
Temporary Jan-21 @ 23:00 - Jan-22 @ 04:00
Wind Visibility
Variable at 2 knots 402 meters
Clouds
  • Overcast at 200' AGL
Conditions
  • Freezing
  • Fog